sensor_id;sensor_type;location;lat;lon;timestamp;P1;durP1;ratioP1;P2;durP2;ratioP2
72621;SDS011;60665;53.506;9.582;2023-08-20T00:02:02;11.32;;;3.20;;
72621;SDS011;60665;53.506;9.582;2023-08-20T00:04:28;10.82;;;2.83;;
72621;SDS011;60665;53.506;9.582;2023-08-20T00:06:56;9.05;;;3.22;;
72621;SDS011;60665;53.506;9.582;2023-08-20T00:09:22;5.93;;;2.30;;
72621;SDS011;60665;53.506;9.582;2023-08-20T00:11:48;6.00;;;2.33;;
72621;SDS011;60665;53.506;9.582;2023-08-20T00:14:15;5.07;;;2.10;;
72621;SDS011;60665;53.506;9.582;2023-08-20T00:16:41;5.18;;;2.45;;
72621;SDS011;60665;53.506;9.582;2023-08-20T00:19:08;6.63;;;2.15;;
72621;SDS011;60665;53.506;9.582;2023-08-20T00:21:34;7.57;;;2.30;;
72621;SDS011;60665;53.506;9.582;2023-08-20T00:24:00;4.60;;;2.25;;
72621;SDS011;60665;53.506;9.582;2023-08-20T00:26:25;6.97;;;2.35;;
72621;SDS011;60665;53.506;9.582;2023-08-20T00:28:51;6.47;;;2.35;;
72621;SDS011;60665;53.506;9.582;2023-08-20T00:31:16;6.75;;;2.40;;
72621;SDS011;60665;53.506;9.582;2023-08-20T00:33:42;6.82;;;2.60;;
72621;SDS011;60665;53.506;9.582;2023-08-20T00:36:08;7.70;;;2.83;;
72621;SDS011;60665;53.506;9.582;2023-08-20T00:38:33;8.18;;;2.35;;
72621;SDS011;60665;53.506;9.582;2023-08-20T00:40:59;5.07;;;2.33;;
72621;SDS011;60665;53.506;9.582;2023-08-20T00:43:24;7.20;;;2.55;;
72621;SDS011;60665;53.506;9.582;2023-08-20T00:45:49;4.75;;;2.05;;
72621;SDS011;60665;53.506;9.582;2023-08-20T00:48:15;6.97;;;2.13;;
72621;SDS011;60665;53.506;9.582;2023-08-20T00:50:41;5.35;;;2.33;;
72621;SDS011;60665;53.506;9.582;2023-08-20T00:53:06;4.88;;;1.88;;
72621;SDS011;60665;53.506;9.582;2023-08-20T00:55:33;4.95;;;2.28;;
72621;SDS011;60665;53.506;9.582;2023-08-20T00:57:58;6.18;;;1.90;;
72621;SDS011;60665;53.506;9.582;2023-08-20T01:00:24;5.63;;;2.03;;
72621;SDS011;60665;53.506;9.582;2023-08-20T01:02:50;5.15;;;2.00;;
72621;SDS011;60665;53.506;9.582;2023-08-20T01:05:16;3.97;;;1.70;;
72621;SDS011;60665;53.506;9.582;2023-08-20T01:13:03;9.02;;;2.17;;
72621;SDS011;60665;53.506;9.582;2023-08-20T01:15:29;8.63;;;2.75;;
72621;SDS011;60665;53.506;9.582;2023-08-20T01:17:55;12.13;;;2.55;;
72621;SDS011;60665;53.506;9.582;2023-08-20T01:20:21;7.57;;;2.40;;
72621;SDS011;60665;53.506;9.582;2023-08-20T01:22:52;7.00;;;2.50;;
72621;SDS011;60665;53.506;9.582;2023-08-20T01:25:32;10.95;;;2.75;;
72621;SDS011;60665;53.506;9.582;2023-08-20T01:30:51;6.63;;;2.63;;
72621;SDS011;60665;53.506;9.582;2023-08-20T01:33:18;6.93;;;3.17;;
72621;SDS011;60665;53.506;9.582;2023-08-20T01:35:44;8.02;;;2.47;;
72621;SDS011;60665;53.506;9.582;2023-08-20T01:38:10;6.43;;;3.00;;
72621;SDS011;60665;53.506;9.582;2023-08-20T01:40:35;5.63;;;2.83;;
72621;SDS011;60665;53.506;9.582;2023-08-20T01:43:00;6.32;;;2.78;;
72621;SDS011;60665;53.506;9.582;2023-08-20T01:45:26;13.65;;;2.67;;
72621;SDS011;60665;53.506;9.582;2023-08-20T01:47:51;9.35;;;3.40;;
72621;SDS011;60665;53.506;9.582;2023-08-20T01:50:17;9.07;;;3.25;;
72621;SDS011;60665;53.506;9.582;2023-08-20T01:52:42;7.15;;;3.15;;
72621;SDS011;60665;53.506;9.582;2023-08-20T01:55:08;11.35;;;3.95;;
72621;SDS011;60665;53.506;9.582;2023-08-20T01:57:33;9.00;;;3.40;;
72621;SDS011;60665;53.506;9.582;2023-08-20T01:59:58;7.15;;;3.67;;
72621;SDS011;60665;53.506;9.582;2023-08-20T02:02:24;8.05;;;3.33;;
72621;SDS011;60665;53.506;9.582;2023-08-20T02:04:49;8.65;;;3.88;;
72621;SDS011;60665;53.506;9.582;2023-08-20T02:07:15;6.68;;;3.70;;
72621;SDS011;60665;53.506;9.582;2023-08-20T02:09:40;7.35;;;3.47;;
72621;SDS011;60665;53.506;9.582;2023-08-20T02:12:06;6.25;;;3.00;;
72621;SDS011;60665;53.506;9.582;2023-08-20T02:14:31;7.30;;;3.95;;
72621;SDS011;60665;53.506;9.582;2023-08-20T02:17:00;8.70;;;4.32;;
72621;SDS011;60665;53.506;9.582;2023-08-20T02:19:28;10.48;;;3.75;;
72621;SDS011;60665;53.506;9.582;2023-08-20T02:21:54;7.03;;;3.47;;
72621;SDS011;60665;53.506;9.582;2023-08-20T02:24:19;8.10;;;3.85;;
72621;SDS011;60665;53.506;9.582;2023-08-20T02:26:45;7.07;;;4.47;;
72621;SDS011;60665;53.506;9.582;2023-08-20T02:29:10;11.00;;;4.25;;
72621;SDS011;60665;53.506;9.582;2023-08-20T02:31:35;8.43;;;3.95;;
72621;SDS011;60665;53.506;9.582;2023-08-20T02:34:01;11.63;;;3.95;;
72621;SDS011;60665;53.506;9.582;2023-08-20T02:36:27;8.27;;;4.00;;
72621;SDS011;60665;53.506;9.582;2023-08-20T02:38:52;5.03;;;3.10;;
72621;SDS011;60665;53.506;9.582;2023-08-20T02:41:18;10.82;;;4.35;;
72621;SDS011;60665;53.506;9.582;2023-08-20T02:43:43;6.80;;;4.30;;
72621;SDS011;60665;53.506;9.582;2023-08-20T02:46:08;6.13;;;3.80;;
72621;SDS011;60665;53.506;9.582;2023-08-20T02:48:34;12.20;;;4.45;;
72621;SDS011;60665;53.506;9.582;2023-08-20T02:50:59;11.13;;;4.13;;
72621;SDS011;60665;53.506;9.582;2023-08-20T02:53:24;11.20;;;4.35;;
72621;SDS011;60665;53.506;9.582;2023-08-20T02:55:50;10.50;;;3.90;;
72621;SDS011;60665;53.506;9.582;2023-08-20T02:58:18;11.13;;;4.10;;
72621;SDS011;60665;53.506;9.582;2023-08-20T03:00:44;6.20;;;3.15;;
72621;SDS011;60665;53.506;9.582;2023-08-20T03:03:10;9.50;;;4.70;;
72621;SDS011;60665;53.506;9.582;2023-08-20T03:05:35;20.63;;;4.55;;
72621;SDS011;60665;53.506;9.582;2023-08-20T03:08:01;8.13;;;4.03;;
72621;SDS011;60665;53.506;9.582;2023-08-20T03:10:28;12.88;;;4.45;;
72621;SDS011;60665;53.506;9.582;2023-08-20T03:12:54;8.68;;;4.03;;
72621;SDS011;60665;53.506;9.582;2023-08-20T03:15:19;6.00;;;3.95;;
72621;SDS011;60665;53.506;9.582;2023-08-20T03:17:44;11.63;;;3.60;;
72621;SDS011;60665;53.506;9.582;2023-08-20T03:20:10;14.82;;;5.05;;
72621;SDS011;60665;53.506;9.582;2023-08-20T03:22:36;8.13;;;3.50;;
72621;SDS011;60665;53.506;9.582;2023-08-20T03:25:02;10.27;;;3.72;;
72621;SDS011;60665;53.506;9.582;2023-08-20T03:27:27;7.75;;;3.65;;
72621;SDS011;60665;53.506;9.582;2023-08-20T03:29:53;6.88;;;4.00;;
72621;SDS011;60665;53.506;9.582;2023-08-20T03:32:18;8.85;;;3.85;;
72621;SDS011;60665;53.506;9.582;2023-08-20T03:34:43;8.45;;;4.55;;
72621;SDS011;60665;53.506;9.582;2023-08-20T03:37:09;4.93;;;2.95;;
72621;SDS011;60665;53.506;9.582;2023-08-20T03:39:34;8.23;;;3.58;;
72621;SDS011;60665;53.506;9.582;2023-08-20T03:41:59;8.88;;;3.85;;
72621;SDS011;60665;53.506;9.582;2023-08-20T03:44:25;8.00;;;4.00;;
72621;SDS011;60665;53.506;9.582;2023-08-20T03:46:51;8.07;;;3.45;;
72621;SDS011;60665;53.506;9.582;2023-08-20T03:49:16;9.82;;;3.75;;
72621;SDS011;60665;53.506;9.582;2023-08-20T03:51:41;8.43;;;3.78;;
72621;SDS011;60665;53.506;9.582;2023-08-20T03:54:07;8.07;;;3.53;;
72621;SDS011;60665;53.506;9.582;2023-08-20T03:56:33;4.75;;;2.95;;
72621;SDS011;60665;53.506;9.582;2023-08-20T03:58:59;7.88;;;3.47;;
72621;SDS011;60665;53.506;9.582;2023-08-20T04:01:24;7.75;;;3.42;;
72621;SDS011;60665;53.506;9.582;2023-08-20T04:03:49;7.32;;;4.65;;
72621;SDS011;60665;53.506;9.582;2023-08-20T04:06:15;7.35;;;4.60;;
72621;SDS011;60665;53.506;9.582;2023-08-20T04:08:40;8.65;;;3.90;;
72621;SDS011;60665;53.506;9.582;2023-08-20T04:11:06;7.32;;;3.05;;
72621;SDS011;60665;53.506;9.582;2023-08-20T04:13:31;8.30;;;3.95;;
72621;SDS011;60665;53.506;9.582;2023-08-20T04:15:57;11.25;;;5.43;;
72621;SDS011;60665;53.506;9.582;2023-08-20T04:18:22;12.18;;;4.35;;
72621;SDS011;60665;53.506;9.582;2023-08-20T04:20:51;15.63;;;5.28;;
72621;SDS011;60665;53.506;9.582;2023-08-20T04:23:17;10.32;;;4.28;;
72621;SDS011;60665;53.506;9.582;2023-08-20T04:25:43;7.35;;;3.67;;
72621;SDS011;60665;53.506;9.582;2023-08-20T04:28:10;10.80;;;4.93;;
72621;SDS011;60665;53.506;9.582;2023-08-20T04:30:36;11.07;;;5.53;;
72621;SDS011;60665;53.506;9.582;2023-08-20T04:33:01;14.82;;;6.95;;
72621;SDS011;60665;53.506;9.582;2023-08-20T04:35:27;13.68;;;6.53;;
72621;SDS011;60665;53.506;9.582;2023-08-20T04:37:53;11.70;;;5.78;;
72621;SDS011;60665;53.506;9.582;2023-08-20T04:40:18;16.98;;;7.47;;
72621;SDS011;60665;53.506;9.582;2023-08-20T04:42:44;16.40;;;7.95;;
72621;SDS011;60665;53.506;9.582;2023-08-20T04:45:09;16.25;;;7.72;;
72621;SDS011;60665;53.506;9.582;2023-08-20T04:47:35;16.90;;;7.82;;
72621;SDS011;60665;53.506;9.582;2023-08-20T04:50:01;15.10;;;7.78;;
72621;SDS011;60665;53.506;9.582;2023-08-20T04:52:26;19.25;;;9.02;;
72621;SDS011;60665;53.506;9.582;2023-08-20T04:54:52;18.92;;;8.45;;
72621;SDS011;60665;53.506;9.582;2023-08-20T04:57:17;17.92;;;8.88;;
72621;SDS011;60665;53.506;9.582;2023-08-20T04:59:42;19.55;;;8.70;;
72621;SDS011;60665;53.506;9.582;2023-08-20T05:02:10;24.55;;;9.10;;
72621;SDS011;60665;53.506;9.582;2023-08-20T05:04:36;19.23;;;10.63;;
72621;SDS011;60665;53.506;9.582;2023-08-20T05:07:02;19.92;;;8.85;;
72621;SDS011;60665;53.506;9.582;2023-08-20T05:09:28;22.55;;;10.15;;
72621;SDS011;60665;53.506;9.582;2023-08-20T05:11:53;23.98;;;11.13;;
72621;SDS011;60665;53.506;9.582;2023-08-20T05:14:19;27.70;;;11.10;;
72621;SDS011;60665;53.506;9.582;2023-08-20T05:16:44;23.50;;;10.65;;
72621;SDS011;60665;53.506;9.582;2023-08-20T05:19:09;23.92;;;10.73;;
72621;SDS011;60665;53.506;9.582;2023-08-20T05:21:35;26.05;;;10.48;;
72621;SDS011;60665;53.506;9.582;2023-08-20T05:24:00;28.15;;;9.75;;
72621;SDS011;60665;53.506;9.582;2023-08-20T05:26:25;21.48;;;9.75;;
72621;SDS011;60665;53.506;9.582;2023-08-20T05:28:51;23.42;;;10.13;;
72621;SDS011;60665;53.506;9.582;2023-08-20T05:31:16;22.42;;;10.35;;
72621;SDS011;60665;53.506;9.582;2023-08-20T05:33:41;23.15;;;10.45;;
72621;SDS011;60665;53.506;9.582;2023-08-20T05:36:07;28.50;;;11.32;;
72621;SDS011;60665;53.506;9.582;2023-08-20T05:38:32;25.83;;;9.27;;
72621;SDS011;60665;53.506;9.582;2023-08-20T05:40:58;19.05;;;9.32;;
72621;SDS011;60665;53.506;9.582;2023-08-20T05:43:23;17.40;;;8.55;;
72621;SDS011;60665;53.506;9.582;2023-08-20T05:45:48;19.48;;;8.68;;
72621;SDS011;60665;53.506;9.582;2023-08-20T05:48:14;19.35;;;10.82;;
72621;SDS011;60665;53.506;9.582;2023-08-20T05:50:39;20.48;;;8.68;;
72621;SDS011;60665;53.506;9.582;2023-08-20T05:53:04;16.65;;;7.28;;
72621;SDS011;60665;53.506;9.582;2023-08-20T05:55:30;17.00;;;7.95;;
72621;SDS011;60665;53.506;9.582;2023-08-20T05:57:55;17.83;;;8.40;;
72621;SDS011;60665;53.506;9.582;2023-08-20T06:00:20;15.63;;;7.88;;
72621;SDS011;60665;53.506;9.582;2023-08-20T06:02:46;17.63;;;8.35;;
72621;SDS011;60665;53.506;9.582;2023-08-20T06:05:11;16.58;;;7.85;;
72621;SDS011;60665;53.506;9.582;2023-08-20T06:07:37;19.20;;;7.95;;
72621;SDS011;60665;53.506;9.582;2023-08-20T06:10:02;13.65;;;7.28;;
72621;SDS011;60665;53.506;9.582;2023-08-20T06:12:28;17.05;;;8.40;;
72621;SDS011;60665;53.506;9.582;2023-08-20T06:14:53;13.70;;;7.30;;
72621;SDS011;60665;53.506;9.582;2023-08-20T06:17:18;14.18;;;6.90;;
72621;SDS011;60665;53.506;9.582;2023-08-20T06:19:44;14.63;;;6.55;;
72621;SDS011;60665;53.506;9.582;2023-08-20T06:22:10;15.23;;;6.85;;
72621;SDS011;60665;53.506;9.582;2023-08-20T06:24:35;11.82;;;6.65;;
72621;SDS011;60665;53.506;9.582;2023-08-20T06:27:01;10.50;;;6.10;;
72621;SDS011;60665;53.506;9.582;2023-08-20T06:29:26;12.90;;;6.47;;
72621;SDS011;60665;53.506;9.582;2023-08-20T06:31:52;12.80;;;5.90;;
72621;SDS011;60665;53.506;9.582;2023-08-20T06:34:17;13.68;;;6.38;;
72621;SDS011;60665;53.506;9.582;2023-08-20T06:36:42;13.45;;;6.88;;
72621;SDS011;60665;53.506;9.582;2023-08-20T06:39:08;10.00;;;6.45;;
72621;SDS011;60665;53.506;9.582;2023-08-20T06:41:33;11.48;;;6.10;;
72621;SDS011;60665;53.506;9.582;2023-08-20T06:44:00;11.10;;;6.15;;
72621;SDS011;60665;53.506;9.582;2023-08-20T06:46:25;13.88;;;6.28;;
72621;SDS011;60665;53.506;9.582;2023-08-20T06:48:51;11.90;;;5.88;;
72621;SDS011;60665;53.506;9.582;2023-08-20T06:51:19;12.48;;;6.00;;
72621;SDS011;60665;53.506;9.582;2023-08-20T06:53:46;10.50;;;4.82;;
72621;SDS011;60665;53.506;9.582;2023-08-20T06:56:11;10.32;;;5.18;;
72621;SDS011;60665;53.506;9.582;2023-08-20T06:58:37;9.77;;;5.07;;
72621;SDS011;60665;53.506;9.582;2023-08-20T07:01:04;8.52;;;5.20;;
72621;SDS011;60665;53.506;9.582;2023-08-20T07:03:33;9.93;;;4.90;;
72621;SDS011;60665;53.506;9.582;2023-08-20T07:05:59;8.85;;;4.82;;
72621;SDS011;60665;53.506;9.582;2023-08-20T07:08:25;9.80;;;5.32;;
72621;SDS011;60665;53.506;9.582;2023-08-20T07:10:50;11.88;;;4.93;;
72621;SDS011;60665;53.506;9.582;2023-08-20T07:13:16;14.40;;;5.20;;
72621;SDS011;60665;53.506;9.582;2023-08-20T07:15:41;9.45;;;4.68;;
72621;SDS011;60665;53.506;9.582;2023-08-20T07:18:06;8.38;;;4.95;;
72621;SDS011;60665;53.506;9.582;2023-08-20T07:20:32;9.43;;;4.70;;
72621;SDS011;60665;53.506;9.582;2023-08-20T07:22:57;8.63;;;4.72;;
72621;SDS011;60665;53.506;9.582;2023-08-20T07:25:22;9.52;;;4.60;;
72621;SDS011;60665;53.506;9.582;2023-08-20T07:27:48;9.00;;;4.45;;
72621;SDS011;60665;53.506;9.582;2023-08-20T07:30:13;7.22;;;3.35;;
72621;SDS011;60665;53.506;9.582;2023-08-20T07:32:38;9.63;;;4.50;;
72621;SDS011;60665;53.506;9.582;2023-08-20T07:35:04;7.07;;;4.20;;
72621;SDS011;60665;53.506;9.582;2023-08-20T07:37:30;9.23;;;4.40;;
72621;SDS011;60665;53.506;9.582;2023-08-20T07:39:56;10.15;;;4.95;;
72621;SDS011;60665;53.506;9.582;2023-08-20T07:42:21;9.63;;;4.90;;
72621;SDS011;60665;53.506;9.582;2023-08-20T07:44:46;9.65;;;4.35;;
72621;SDS011;60665;53.506;9.582;2023-08-20T07:47:12;10.65;;;4.72;;
72621;SDS011;60665;53.506;9.582;2023-08-20T07:49:37;11.73;;;5.03;;
72621;SDS011;60665;53.506;9.582;2023-08-20T07:52:03;17.80;;;4.90;;
72621;SDS011;60665;53.506;9.582;2023-08-20T07:54:28;10.02;;;4.47;;
72621;SDS011;60665;53.506;9.582;2023-08-20T07:56:54;8.88;;;4.45;;
72621;SDS011;60665;53.506;9.582;2023-08-20T07:59:19;8.77;;;3.72;;
72621;SDS011;60665;53.506;9.582;2023-08-20T08:01:44;10.70;;;3.90;;
72621;SDS011;60665;53.506;9.582;2023-08-20T08:04:10;7.88;;;3.58;;
72621;SDS011;60665;53.506;9.582;2023-08-20T08:06:35;8.75;;;3.97;;
72621;SDS011;60665;53.506;9.582;2023-08-20T08:11:54;6.25;;;3.22;;
72621;SDS011;60665;53.506;9.582;2023-08-20T08:14:20;8.52;;;3.78;;
72621;SDS011;60665;53.506;9.582;2023-08-20T08:16:45;8.00;;;3.13;;
72621;SDS011;60665;53.506;9.582;2023-08-20T08:19:11;10.05;;;3.20;;
72621;SDS011;60665;53.506;9.582;2023-08-20T08:21:37;8.98;;;3.00;;
72621;SDS011;60665;53.506;9.582;2023-08-20T08:24:02;9.65;;;3.13;;
72621;SDS011;60665;53.506;9.582;2023-08-20T08:26:29;7.68;;;2.45;;
72621;SDS011;60665;53.506;9.582;2023-08-20T08:28:54;8.40;;;2.70;;
72621;SDS011;60665;53.506;9.582;2023-08-20T08:31:19;6.93;;;2.83;;
72621;SDS011;60665;53.506;9.582;2023-08-20T08:33:45;9.85;;;3.15;;
72621;SDS011;60665;53.506;9.582;2023-08-20T08:36:10;7.03;;;3.22;;
72621;SDS011;60665;53.506;9.582;2023-08-20T08:38:36;8.23;;;2.38;;
72621;SDS011;60665;53.506;9.582;2023-08-20T08:41:03;5.45;;;1.73;;
72621;SDS011;60665;53.506;9.582;2023-08-20T08:43:28;8.13;;;2.03;;
72621;SDS011;60665;53.506;9.582;2023-08-20T08:45:55;5.80;;;1.88;;
72621;SDS011;60665;53.506;9.582;2023-08-20T08:48:21;7.18;;;1.80;;
72621;SDS011;60665;53.506;9.582;2023-08-20T08:50:46;5.22;;;2.05;;
72621;SDS011;60665;53.506;9.582;2023-08-20T08:53:12;6.20;;;1.98;;
72621;SDS011;60665;53.506;9.582;2023-08-20T08:55:38;7.63;;;1.60;;
72621;SDS011;60665;53.506;9.582;2023-08-20T08:58:03;6.68;;;1.83;;
72621;SDS011;60665;53.506;9.582;2023-08-20T09:00:29;4.45;;;1.42;;
72621;SDS011;60665;53.506;9.582;2023-08-20T09:02:56;8.27;;;1.90;;
72621;SDS011;60665;53.506;9.582;2023-08-20T09:05:21;5.95;;;1.30;;
72621;SDS011;60665;53.506;9.582;2023-08-20T09:07:47;7.60;;;1.65;;
72621;SDS011;60665;53.506;9.582;2023-08-20T09:10:16;7.88;;;1.70;;
72621;SDS011;60665;53.506;9.582;2023-08-20T09:12:43;8.00;;;2.00;;
72621;SDS011;60665;53.506;9.582;2023-08-20T09:15:11;6.18;;;1.55;;
72621;SDS011;60665;53.506;9.582;2023-08-20T09:17:37;9.20;;;2.28;;
72621;SDS011;60665;53.506;9.582;2023-08-20T09:20:03;10.30;;;2.92;;
72621;SDS011;60665;53.506;9.582;2023-08-20T09:22:28;6.63;;;1.23;;
72621;SDS011;60665;53.506;9.582;2023-08-20T09:24:54;7.25;;;1.90;;
72621;SDS011;60665;53.506;9.582;2023-08-20T09:27:21;14.05;;;2.42;;
72621;SDS011;60665;53.506;9.582;2023-08-20T09:29:51;4.57;;;1.58;;
72621;SDS011;60665;53.506;9.582;2023-08-20T09:32:22;10.02;;;1.60;;
72621;SDS011;60665;53.506;9.582;2023-08-20T09:34:52;7.22;;;1.50;;
72621;SDS011;60665;53.506;9.582;2023-08-20T09:37:20;5.97;;;1.50;;
72621;SDS011;60665;53.506;9.582;2023-08-20T09:39:46;8.25;;;2.00;;
72621;SDS011;60665;53.506;9.582;2023-08-20T09:42:12;7.95;;;1.70;;
72621;SDS011;60665;53.506;9.582;2023-08-20T09:44:39;7.03;;;1.95;;
72621;SDS011;60665;53.506;9.582;2023-08-20T09:47:06;6.45;;;1.55;;
72621;SDS011;60665;53.506;9.582;2023-08-20T09:49:36;8.13;;;1.45;;
72621;SDS011;60665;53.506;9.582;2023-08-20T09:52:07;7.20;;;2.20;;
72621;SDS011;60665;53.506;9.582;2023-08-20T09:54:42;5.05;;;1.52;;
72621;SDS011;60665;53.506;9.582;2023-08-20T09:57:32;6.88;;;2.13;;
72621;SDS011;60665;53.506;9.582;2023-08-20T10:00:01;8.50;;;2.83;;
72621;SDS011;60665;53.506;9.582;2023-08-20T10:02:28;5.55;;;1.90;;
72621;SDS011;60665;53.506;9.582;2023-08-20T10:04:54;9.27;;;2.15;;
72621;SDS011;60665;53.506;9.582;2023-08-20T10:07:20;4.93;;;1.45;;
72621;SDS011;60665;53.506;9.582;2023-08-20T10:09:47;8.82;;;1.85;;
72621;SDS011;60665;53.506;9.582;2023-08-20T10:12:15;6.13;;;1.65;;
72621;SDS011;60665;53.506;9.582;2023-08-20T10:14:40;8.63;;;1.70;;
72621;SDS011;60665;53.506;9.582;2023-08-20T10:17:09;8.80;;;1.70;;
72621;SDS011;60665;53.506;9.582;2023-08-20T10:19:36;6.03;;;2.30;;
72621;SDS011;60665;53.506;9.582;2023-08-20T10:22:03;6.38;;;2.50;;
72621;SDS011;60665;53.506;9.582;2023-08-20T10:24:28;6.20;;;2.30;;
72621;SDS011;60665;53.506;9.582;2023-08-20T10:27:32;6.05;;;1.88;;
72621;SDS011;60665;53.506;9.582;2023-08-20T10:30:01;5.57;;;1.42;;
72621;SDS011;60665;53.506;9.582;2023-08-20T10:35:11;5.47;;;2.13;;
72621;SDS011;60665;53.506;9.582;2023-08-20T10:37:37;7.18;;;1.70;;
72621;SDS011;60665;53.506;9.582;2023-08-20T10:40:05;6.40;;;2.15;;
72621;SDS011;60665;53.506;9.582;2023-08-20T10:42:31;5.97;;;1.98;;
72621;SDS011;60665;53.506;9.582;2023-08-20T10:47:23;6.47;;;2.42;;
72621;SDS011;60665;53.506;9.582;2023-08-20T10:49:53;6.78;;;1.33;;
72621;SDS011;60665;53.506;9.582;2023-08-20T10:52:24;6.57;;;1.48;;
72621;SDS011;60665;53.506;9.582;2023-08-20T10:54:50;7.03;;;2.15;;
72621;SDS011;60665;53.506;9.582;2023-08-20T10:57:17;7.30;;;2.35;;
72621;SDS011;60665;53.506;9.582;2023-08-20T10:59:47;6.45;;;2.50;;
72621;SDS011;60665;53.506;9.582;2023-08-20T11:02:23;7.30;;;1.42;;
72621;SDS011;60665;53.506;9.582;2023-08-20T11:04:48;6.28;;;1.40;;
72621;SDS011;60665;53.506;9.582;2023-08-20T11:07:14;7.47;;;1.80;;
72621;SDS011;60665;53.506;9.582;2023-08-20T11:09:42;4.78;;;1.83;;
72621;SDS011;60665;53.506;9.582;2023-08-20T11:14:35;8.17;;;2.93;;
72621;SDS011;60665;53.506;9.582;2023-08-20T11:17:00;7.30;;;2.17;;
72621;SDS011;60665;53.506;9.582;2023-08-20T11:19:26;5.70;;;2.40;;
72621;SDS011;60665;53.506;9.582;2023-08-20T11:21:51;6.55;;;1.63;;
72621;SDS011;60665;53.506;9.582;2023-08-20T11:24:17;6.10;;;1.42;;
72621;SDS011;60665;53.506;9.582;2023-08-20T11:26:45;6.70;;;1.92;;
72621;SDS011;60665;53.506;9.582;2023-08-20T11:29:12;7.18;;;1.70;;
72621;SDS011;60665;53.506;9.582;2023-08-20T11:31:40;7.28;;;1.70;;
72621;SDS011;60665;53.506;9.582;2023-08-20T11:34:06;6.38;;;1.83;;
72621;SDS011;60665;53.506;9.582;2023-08-20T11:36:32;6.28;;;1.67;;
72621;SDS011;60665;53.506;9.582;2023-08-20T11:38:58;5.20;;;2.10;;
72621;SDS011;60665;53.506;9.582;2023-08-20T11:41:24;6.53;;;1.60;;
72621;SDS011;60665;53.506;9.582;2023-08-20T11:43:50;5.82;;;2.13;;
72621;SDS011;60665;53.506;9.582;2023-08-20T11:46:18;6.22;;;2.90;;
72621;SDS011;60665;53.506;9.582;2023-08-20T11:49:06;4.53;;;1.73;;
72621;SDS011;60665;53.506;9.582;2023-08-20T11:51:42;8.25;;;2.10;;
72621;SDS011;60665;53.506;9.582;2023-08-20T11:54:12;5.30;;;1.80;;
72621;SDS011;60665;53.506;9.582;2023-08-20T11:59:10;7.65;;;1.88;;
72621;SDS011;60665;53.506;9.582;2023-08-20T12:01:36;6.20;;;1.60;;
72621;SDS011;60665;53.506;9.582;2023-08-20T12:04:05;5.57;;;1.90;;
72621;SDS011;60665;53.506;9.582;2023-08-20T12:06:33;5.88;;;1.50;;
72621;SDS011;60665;53.506;9.582;2023-08-20T12:11:25;6.07;;;2.40;;
72621;SDS011;60665;53.506;9.582;2023-08-20T12:13:53;6.85;;;1.85;;
72621;SDS011;60665;53.506;9.582;2023-08-20T12:16:21;5.72;;;2.17;;
72621;SDS011;60665;53.506;9.582;2023-08-20T12:18:47;6.28;;;1.75;;
72621;SDS011;60665;53.506;9.582;2023-08-20T12:21:13;6.05;;;2.10;;
72621;SDS011;60665;53.506;9.582;2023-08-20T12:23:38;6.93;;;2.28;;
72621;SDS011;60665;53.506;9.582;2023-08-20T12:26:04;4.82;;;2.40;;
72621;SDS011;60665;53.506;9.582;2023-08-20T12:28:29;7.65;;;2.10;;
72621;SDS011;60665;53.506;9.582;2023-08-20T12:30:55;7.10;;;1.92;;
72621;SDS011;60665;53.506;9.582;2023-08-20T12:33:20;5.22;;;2.28;;
72621;SDS011;60665;53.506;9.582;2023-08-20T12:35:49;7.85;;;2.50;;
72621;SDS011;60665;53.506;9.582;2023-08-20T12:38:14;6.03;;;1.70;;
72621;SDS011;60665;53.506;9.582;2023-08-20T12:40:40;7.05;;;1.95;;
72621;SDS011;60665;53.506;9.582;2023-08-20T12:43:05;6.88;;;1.85;;
72621;SDS011;60665;53.506;9.582;2023-08-20T12:45:31;6.50;;;2.10;;
72621;SDS011;60665;53.506;9.582;2023-08-20T12:47:56;3.92;;;1.88;;
72621;SDS011;60665;53.506;9.582;2023-08-20T12:50:21;5.88;;;2.40;;
72621;SDS011;60665;53.506;9.582;2023-08-20T12:52:47;6.25;;;1.83;;
72621;SDS011;60665;53.506;9.582;2023-08-20T12:57:51;4.63;;;1.50;;
72621;SDS011;60665;53.506;9.582;2023-08-20T13:00:21;4.07;;;1.40;;
72621;SDS011;60665;53.506;9.582;2023-08-20T13:02:47;5.30;;;1.30;;
72621;SDS011;60665;53.506;9.582;2023-08-20T13:05:13;3.55;;;1.38;;
72621;SDS011;60665;53.506;9.582;2023-08-20T13:07:39;4.18;;;1.30;;
72621;SDS011;60665;53.506;9.582;2023-08-20T13:10:05;4.18;;;1.20;;
72621;SDS011;60665;53.506;9.582;2023-08-20T13:12:31;4.25;;;1.30;;
72621;SDS011;60665;53.506;9.582;2023-08-20T13:14:57;5.07;;;1.52;;
72621;SDS011;60665;53.506;9.582;2023-08-20T13:17:23;4.10;;;1.20;;
72621;SDS011;60665;53.506;9.582;2023-08-20T13:19:49;6.28;;;1.40;;
72621;SDS011;60665;53.506;9.582;2023-08-20T13:22:14;8.82;;;1.58;;
72621;SDS011;60665;53.506;9.582;2023-08-20T13:24:40;4.95;;;1.60;;
72621;SDS011;60665;53.506;9.582;2023-08-20T13:27:05;5.18;;;1.20;;
72621;SDS011;60665;53.506;9.582;2023-08-20T13:29:30;6.43;;;1.38;;
72621;SDS011;60665;53.506;9.582;2023-08-20T13:31:56;6.05;;;1.30;;
72621;SDS011;60665;53.506;9.582;2023-08-20T13:34:23;8.75;;;2.10;;
72621;SDS011;60665;53.506;9.582;2023-08-20T13:36:49;4.07;;;1.40;;
72621;SDS011;60665;53.506;9.582;2023-08-20T13:39:14;4.93;;;1.50;;
72621;SDS011;60665;53.506;9.582;2023-08-20T13:41:40;5.20;;;1.60;;
72621;SDS011;60665;53.506;9.582;2023-08-20T13:44:06;5.15;;;1.25;;
72621;SDS011;60665;53.506;9.582;2023-08-20T13:46:33;6.88;;;1.85;;
72621;SDS011;60665;53.506;9.582;2023-08-20T13:48:58;6.22;;;1.35;;
72621;SDS011;60665;53.506;9.582;2023-08-20T13:51:24;4.72;;;1.30;;
72621;SDS011;60665;53.506;9.582;2023-08-20T13:53:50;3.15;;;1.13;;
72621;SDS011;60665;53.506;9.582;2023-08-20T13:56:16;5.53;;;1.33;;
72621;SDS011;60665;53.506;9.582;2023-08-20T13:58:41;4.25;;;1.10;;
72621;SDS011;60665;53.506;9.582;2023-08-20T14:01:06;5.22;;;1.30;;
72621;SDS011;60665;53.506;9.582;2023-08-20T14:03:32;5.63;;;1.58;;
72621;SDS011;60665;53.506;9.582;2023-08-20T14:05:57;4.68;;;1.40;;
72621;SDS011;60665;53.506;9.582;2023-08-20T14:08:24;4.22;;;1.33;;
72621;SDS011;60665;53.506;9.582;2023-08-20T14:10:49;4.82;;;1.42;;
72621;SDS011;60665;53.506;9.582;2023-08-20T14:13:14;6.50;;;1.73;;
72621;SDS011;60665;53.506;9.582;2023-08-20T14:15:40;4.45;;;1.10;;
72621;SDS011;60665;53.506;9.582;2023-08-20T14:18:05;4.25;;;1.30;;
72621;SDS011;60665;53.506;9.582;2023-08-20T14:20:31;4.18;;;1.45;;
72621;SDS011;60665;53.506;9.582;2023-08-20T14:22:56;3.80;;;1.70;;
72621;SDS011;60665;53.506;9.582;2023-08-20T14:25:21;4.22;;;1.20;;
72621;SDS011;60665;53.506;9.582;2023-08-20T14:27:47;4.30;;;1.42;;
72621;SDS011;60665;53.506;9.582;2023-08-20T14:30:12;6.30;;;2.08;;
72621;SDS011;60665;53.506;9.582;2023-08-20T14:32:38;4.80;;;1.40;;
72621;SDS011;60665;53.506;9.582;2023-08-20T14:35:03;4.18;;;1.58;;
72621;SDS011;60665;53.506;9.582;2023-08-20T14:37:29;5.00;;;1.30;;
72621;SDS011;60665;53.506;9.582;2023-08-20T14:39:54;6.53;;;1.75;;
72621;SDS011;60665;53.506;9.582;2023-08-20T14:42:20;10.15;;;1.20;;
72621;SDS011;60665;53.506;9.582;2023-08-20T14:44:45;4.05;;;1.10;;
72621;SDS011;60665;53.506;9.582;2023-08-20T14:47:11;3.40;;;1.00;;
72621;SDS011;60665;53.506;9.582;2023-08-20T14:49:36;4.75;;;1.60;;
72621;SDS011;60665;53.506;9.582;2023-08-20T14:52:01;4.70;;;1.30;;
72621;SDS011;60665;53.506;9.582;2023-08-20T14:54:27;6.63;;;1.10;;
72621;SDS011;60665;53.506;9.582;2023-08-20T14:56:52;4.47;;;1.00;;
72621;SDS011;60665;53.506;9.582;2023-08-20T14:59:18;6.22;;;1.50;;
72621;SDS011;60665;53.506;9.582;2023-08-20T15:01:43;5.22;;;1.60;;
72621;SDS011;60665;53.506;9.582;2023-08-20T15:04:09;4.40;;;1.10;;